Time;durP1;ratioP1;P1;durP2;ratioP2;P2;SDS_P1;SDS_P2;PMS_P1;PMS_P2;Temp;Humidity;BMP_temperature;BMP_pressure;BME280_temperature;BME280_humidity;BME280_pressure;Samples;Min_cycle;Max_cycle;Signal;HPM_P1;HPM_P2
2022/07/05 00:00:42;;;;;;;5.50;3.23;;;;;;;15.32;72.02;101944.56;5199394;28;20161;-71
2022/07/05 00:03:14;;;;;;;5.45;2.90;;;;;;;15.31;72.72;101944.56;5185767;28;20141;-70
2022/07/05 00:05:45;;;;;;;6.23;3.30;;;;;;;15.16;73.31;101945.66;5179330;28;20062;-74
2022/07/05 00:08:17;;;;;;;4.80;3.60;;;;;;;15.08;73.51;101945.75;5179227;28;20033;-73
2022/07/05 00:10:49;;;;;;;4.90;3.20;;;;;;;15.12;74.08;101942.22;5178864;28;20102;-71
2022/07/05 00:13:20;;;;;;;12.97;3.10;;;;;;;14.94;74.53;101943.31;5178714;28;20154;-72
2022/07/05 00:15:52;;;;;;;6.87;3.30;;;;;;;15.04;74.54;101938.81;5178675;28;20038;-71
2022/07/05 00:18:23;;;;;;;6.33;2.97;;;;;;;14.89;74.98;101931.13;5178668;28;20030;-73
2022/07/05 00:20:54;;;;;;;5.83;2.83;;;;;;;14.83;75.40;101936.44;5179076;28;20498;-71
2022/07/05 00:23:26;;;;;;;4.70;3.30;;;;;;;14.84;75.36;101936.44;5179074;28;20031;-72
2022/07/05 00:25:57;;;;;;;5.00;3.07;;;;;;;14.81;76.06;101935.59;5182594;28;20023;-72
2022/07/05 00:28:28;;;;;;;11.17;3.40;;;;;;;14.68;76.10;101933.16;5198997;28;20034;-71
2022/07/05 00:31:00;;;;;;;5.80;3.50;;;;;;;14.59;76.68;101933.22;5202670;28;20160;-71
2022/07/05 00:33:31;;;;;;;6.40;3.40;;;;;;;14.54;77.02;101941.13;5202731;28;20430;-71
2022/07/05 00:36:03;;;;;;;5.50;3.10;;;;;;;14.46;77.01;101940.34;5202614;28;20037;-70
2022/07/05 00:38:34;;;;;;;6.97;3.93;;;;;;;14.52;77.36;101939.41;5188428;28;20062;-72
2022/07/05 00:41:06;;;;;;;9.87;3.90;;;;;;;14.49;77.36;101944.66;5181708;28;20478;-71
2022/07/05 00:43:50;;;;;;;5.07;3.42;;;;;;;14.39;77.91;101938.66;5182338;28;20034;-71
2022/07/05 00:46:22;;;;;;;6.63;3.42;;;;;;;14.28;78.12;101938.78;5182283;28;20520;-69
2022/07/05 00:48:54;;;;;;;9.48;3.47;;;;;;;14.35;78.16;101934.34;5182065;28;20118;-75
2022/07/05 00:51:31;;;;;;;4.30;3.22;;;;;;;14.42;78.76;101933.38;5181572;28;20029;-72
2022/07/05 00:54:07;;;;;;;7.43;3.10;;;;;;;14.32;78.01;101929.97;5181834;28;20023;-72
2022/07/05 00:56:38;;;;;;;8.80;3.50;;;;;;;14.26;78.69;101935.28;5188269;28;20030;-73
2022/07/05 00:59:09;;;;;;;6.20;3.00;;;;;;;14.36;78.06;101938.69;5201729;28;20049;-70
2022/07/05 01:01:41;;;;;;;5.90;3.90;;;;;;;14.18;78.97;101934.50;5201323;28;20097;-71
2022/07/05 01:04:12;;;;;;;4.50;3.10;;;;;;;14.10;79.54;101945.03;5200458;28;20041;-70
2022/07/05 01:06:46;;;;;;;5.37;3.40;;;;;;;14.03;79.94;101940.75;5201511;28;20037;-71
2022/07/05 01:09:20;;;;;;;5.07;3.92;;;;;;;14.03;80.24;101938.13;5201925;28;20026;-69
2022/07/05 01:11:54;;;;;;;5.10;4.00;;;;;;;13.98;80.25;101935.53;5201390;28;20077;-71
2022/07/05 01:14:25;;;;;;;5.75;3.55;;;;;;;13.94;80.64;101941.72;5201098;28;20113;-70
2022/07/05 01:16:58;;;;;;;6.87;3.83;;;;;;;13.93;80.74;101944.34;5201800;28;20114;-70
2022/07/05 01:19:30;;;;;;;6.55;3.90;;;;;;;13.83;81.12;101931.31;5185692;28;20125;-71
2022/07/05 01:22:07;;;;;;;4.82;4.05;;;;;;;13.82;81.43;101940.03;5181102;28;20275;-71
2022/07/05 01:24:39;;;;;;;6.47;4.18;;;;;;;13.79;81.20;101942.69;5183807;28;20037;-72
2022/07/05 01:27:11;;;;;;;6.13;4.20;;;;;;;13.72;81.67;101946.25;5202121;28;20018;-72
2022/07/05 01:29:43;;;;;;;7.10;4.55;;;;;;;13.60;81.84;101941.09;5201733;28;20379;-71
2022/07/05 01:32:14;;;;;;;7.70;4.57;;;;;;;13.58;82.24;101942.84;5202175;28;20037;-71
2022/07/05 01:34:46;;;;;;;5.70;3.87;;;;;;;13.58;82.40;101942.84;5201677;28;20289;-71
2022/07/05 01:37:18;;;;;;;8.13;4.53;;;;;;;13.47;82.53;101942.91;5202388;28;20037;-73
2022/07/05 01:39:51;;;;;;;6.67;4.30;;;;;;;13.54;82.84;101951.59;5201850;28;20027;-74
2022/07/05 01:42:24;;;;;;;6.78;3.95;;;;;;;13.36;82.92;101944.72;5184419;28;20027;-72
2022/07/05 01:45:05;;;;;;;5.85;3.83;;;;;;;13.24;83.68;101943.88;5189633;28;20038;-69
2022/07/05 01:47:40;;;;;;;5.45;3.88;;;;;;;13.20;83.86;101951.75;5193849;28;20086;-68
2022/07/05 01:50:16;;;;;;;5.38;3.58;;;;;;;13.20;83.98;101951.75;5204205;28;20026;-69
2022/07/05 01:52:49;;;;;;;5.57;3.90;;;;;;;13.27;83.80;101941.25;5214767;28;20426;-70
2022/07/05 01:55:20;;;;;;;7.05;4.25;;;;;;;13.24;83.91;101948.25;5213823;28;20042;-70
2022/07/05 01:57:51;;;;;;;8.30;4.40;;;;;;;13.33;84.09;101937.78;5214017;28;20142;-70
2022/07/05 02:00:23;;;;;;;4.73;3.90;;;;;;;13.21;83.88;101943.91;5210066;28;20113;-70
2022/07/05 02:02:56;;;;;;;5.57;4.13;;;;;;;13.32;84.12;101938.59;5195844;28;20497;-71
2022/07/05 02:05:28;;;;;;;5.55;3.80;;;;;;;13.30;84.24;101930.75;5212463;28;20018;-69
2022/07/05 02:07:59;;;;;;;7.40;4.17;;;;;;;13.10;84.78;101936.09;5214078;28;20157;-71
2022/07/05 02:10:30;;;;;;;6.60;4.03;;;;;;;13.10;84.91;101935.22;5214605;28;20026;-68
2022/07/05 02:13:03;;;;;;;7.07;4.07;;;;;;;13.08;84.73;101924.75;5214655;28;20034;-70
2022/07/05 02:15:37;;;;;;;7.13;4.57;;;;;;;13.06;85.17;101928.28;5212856;28;20042;-69
2022/07/05 02:18:09;;;;;;;6.50;4.53;;;;;;;13.11;85.38;101931.75;5212991;28;20026;-70
2022/07/05 02:20:41;;;;;;;5.47;3.87;;;;;;;13.05;85.27;101926.53;5205694;28;20062;-69
2022/07/05 02:23:12;;;;;;;5.72;3.80;;;;;;;13.03;85.27;101928.28;5186605;28;20031;-71
2022/07/05 02:25:44;;;;;;;5.37;3.73;;;;;;;13.09;85.11;101928.28;5182944;28;20046;-70
2022/07/05 02:28:16;;;;;;;5.23;3.67;;;;;;;13.00;85.16;101929.16;5183872;28;20086;-72
2022/07/05 02:30:48;;;;;;;5.32;3.80;;;;;;;12.94;85.30;101923.94;5181699;28;20035;-72
2022/07/05 02:33:19;;;;;;;6.87;4.47;;;;;;;12.95;85.12;101928.31;5183481;28;20034;-73
2022/07/05 02:35:50;;;;;;;6.63;4.63;;;;;;;12.98;85.57;101927.44;5193786;28;20034;-70
2022/07/05 02:38:23;;;;;;;6.87;4.30;;;;;;;12.97;85.39;101937.03;5202365;28;20129;-73
2022/07/05 02:40:55;;;;;;;6.68;4.63;;;;;;;12.98;85.89;101936.16;5202304;28;20330;-73
2022/07/05 02:43:31;;;;;;;;;;;;;;;12.99;83.61;101931.78;5184902;28;20088;-71
2022/07/05 02:46:03;;;;;;;5.13;3.97;;;;;;;13.05;85.53;101931.75;5201516;28;19909;-72
2022/07/05 02:48:36;;;;;;;7.38;4.97;;;;;;;12.89;85.41;101937.06;5202006;28;20035;-71
2022/07/05 02:51:07;;;;;;;6.28;4.80;;;;;;;12.85;85.57;101934.47;5202027;28;20030;-71
2022/07/05 02:53:39;;;;;;;10.07;5.80;;;;;;;12.86;85.43;101942.28;5187495;28;20113;-70
2022/07/05 02:56:10;;;;;;;8.60;5.77;;;;;;;12.95;85.31;101942.25;5181594;28;20050;-73
2022/07/05 02:58:41;;;;;;;6.83;5.60;;;;;;;12.94;85.74;101937.94;5180944;28;20045;-72
2022/07/05 03:01:13;;;;;;;7.73;5.53;;;;;;;12.85;85.99;101940.56;5181061;28;20054;-71
2022/07/05 03:03:45;;;;;;;7.77;5.03;;;;;;;12.80;86.40;101941.44;5180834;28;20058;-71
2022/07/05 03:06:16;;;;;;;6.72;5.28;;;;;;;12.58;86.88;101936.31;5180992;28;20027;-73
2022/07/05 03:08:48;;;;;;;8.80;5.57;;;;;;;12.49;87.11;101945.03;5181409;28;20037;-73
2022/07/05 03:11:20;;;;;;;12.77;5.50;;;;;;;12.38;87.55;101945.06;5180589;28;20121;-73
2022/07/05 03:13:52;;;;;;;10.07;6.22;;;;;;;12.30;87.95;101954.66;5180463;28;20063;-71
2022/07/05 03:16:24;;;;;;;11.33;6.07;;;;;;;12.41;88.20;101965.09;5181043;28;20461;-74
2022/07/05 03:18:55;;;;;;;10.75;5.97;;;;;;;12.24;88.41;101964.25;5180866;28;20114;-69
2022/07/05 03:21:26;;;;;;;9.43;7.23;;;;;;;12.32;88.40;101962.50;5199758;28;20134;-74
2022/07/05 03:23:57;;;;;;;6.83;5.30;;;;;;;12.43;88.36;101965.09;5199701;28;20039;-73
2022/07/05 03:26:29;;;;;;;10.00;5.80;;;;;;;12.17;88.33;101971.22;5180602;28;20030;-71
2022/07/05 03:29:00;;;;;;;7.23;5.80;;;;;;;12.20;88.20;101971.22;5180181;28;20047;-72
2022/07/05 03:31:32;;;;;;;6.47;5.30;;;;;;;12.11;88.85;101969.50;5180439;28;20109;-70
2022/07/05 03:34:03;;;;;;;7.50;5.30;;;;;;;12.10;88.97;101967.72;5180006;28;20042;-69
2022/07/05 03:36:34;;;;;;;9.23;5.83;;;;;;;12.01;88.79;101965.13;5178641;28;20050;-72
2022/07/05 03:39:06;;;;;;;8.00;5.73;;;;;;;12.08;89.48;101971.25;5179213;28;20078;-72
2022/07/05 03:41:37;;;;;;;7.93;5.67;;;;;;;12.08;89.54;101972.09;5179627;28;20037;-69
2022/07/05 03:44:08;;;;;;;8.10;5.83;;;;;;;12.12;89.51;101967.72;5179800;28;20058;-74
2022/07/05 03:46:40;;;;;;;6.83;5.13;;;;;;;12.15;89.43;101973.81;5179931;28;20038;-73
2022/07/05 03:49:11;;;;;;;10.70;5.70;;;;;;;12.16;89.67;101972.09;5180219;28;20027;-74
2022/07/05 03:51:42;;;;;;;13.17;6.63;;;;;;;12.19;89.66;101975.59;5193111;28;20030;-73
2022/07/05 03:54:14;;;;;;;8.13;5.70;;;;;;;12.23;89.72;101979.06;5196745;28;20502;-71
2022/07/05 03:56:45;;;;;;;6.93;5.97;;;;;;;12.27;89.62;101980.81;5179540;28;20037;-72
2022/07/05 03:59:16;;;;;;;8.03;6.03;;;;;;;12.32;89.61;101979.06;5181438;28;20129;-71
2022/07/05 04:01:48;;;;;;;9.40;5.97;;;;;;;12.50;90.14;101980.78;5183199;28;20041;-72
2022/07/05 04:04:19;;;;;;;9.17;6.73;;;;;;;12.52;88.93;101980.78;5183399;28;20042;-70
2022/07/05 04:09:33;;;;;;;8.70;6.38;;;;;;;12.77;89.17;101981.59;5480637;23;20101;-71
2022/07/05 04:12:05;;;;;;;9.10;6.63;;;;;;;12.93;88.74;101990.28;5202070;28;20493;-72
2022/07/05 04:14:36;;;;;;;9.50;7.43;;;;;;;13.01;88.38;101995.47;5187265;28;20509;-72
2022/07/05 04:17:08;;;;;;;7.77;6.80;;;;;;;13.11;88.00;101990.19;5183578;28;20046;-73
2022/07/05 04:19:39;;;;;;;11.63;7.10;;;;;;;13.27;88.07;101990.16;5202690;28;20034;-69
2022/07/05 04:22:11;;;;;;;9.20;7.50;;;;;;;13.31;87.79;101991.84;5202314;28;20026;-70
2022/07/05 04:27:33;;;;;;;9.60;7.85;;;;;;;13.41;85.16;101996.22;5205143;28;20034;-72
2022/07/05 04:30:04;;;;;;;8.63;7.17;;;;;;;13.45;84.83;101995.31;5204662;28;20109;-73
2022/07/05 04:32:36;;;;;;;10.20;8.27;;;;;;;13.60;85.05;101993.47;5212620;28;20029;-70
2022/07/05 04:35:08;;;;;;;10.00;9.00;;;;;;;13.81;84.57;101997.72;5220034;28;20022;-70
2022/07/05 04:37:40;;;;;;;11.60;8.60;;;;;;;13.75;83.47;102000.38;5222144;28;20034;-71
2022/07/05 04:40:13;;;;;;;8.95;8.05;;;;;;;13.80;83.78;101999.47;5221785;28;20018;-71
2022/07/05 04:42:45;;;;;;;;;;;;;;;13.98;83.17;102000.22;5447266;23;20395;-76
2022/07/05 04:45:18;;;;;;;11.60;8.18;;;;;;;13.96;84.20;102001.97;5198736;28;20004;-76
2022/07/05 04:47:49;;;;;;;10.25;8.18;;;;;;;14.12;84.12;101998.38;5177885;28;20058;-76
2022/07/05 04:50:21;;;;;;;10.93;8.70;;;;;;;14.20;83.83;102004.41;5181331;28;20031;-76
2022/07/05 04:52:52;;;;;;;8.70;7.83;;;;;;;14.35;83.98;102000.78;5168845;28;20026;-78
2022/07/05 04:55:24;;;;;;;12.13;9.33;;;;;;;14.32;82.76;101995.56;5162172;29;20087;-76
2022/07/05 04:57:55;;;;;;;12.87;8.53;;;;;;;14.55;82.53;101991.84;5161769;29;20045;-76
2022/07/05 05:00:26;;;;;;;11.67;9.33;;;;;;;14.50;82.13;101994.50;5161565;29;20129;-76
2022/07/05 05:02:58;;;;;;;11.40;8.67;;;;;;;14.66;82.14;101997.88;5161754;29;20027;-76
2022/07/05 05:08:10;;;;;;;11.95;8.82;;;;;;;14.71;81.08;102003.09;5821656;23;20054;-74
2022/07/05 05:10:41;;;;;;;12.27;8.13;;;;;;;14.89;80.93;101997.66;5180500;28;20449;-75
2022/07/05 05:13:13;;;;;;;10.70;8.23;;;;;;;14.88;79.76;102002.91;5195089;28;20037;-74
2022/07/05 05:15:45;;;;;;;13.80;8.47;;;;;;;14.99;79.29;102000.16;5181022;28;20089;-74
2022/07/05 05:18:18;;;;;;;16.60;10.88;;;;;;;15.00;78.17;102002.75;5180903;28;20035;-74
2022/07/05 05:20:49;;;;;;;17.70;9.00;;;;;;;15.07;79.08;102008.81;5180985;28;20027;-74
2022/07/05 05:23:23;;;;;;;12.17;8.90;;;;;;;15.12;78.56;102002.63;5182359;28;20023;-76
2022/07/05 05:25:55;;;;;;;15.48;9.07;;;;;;;15.20;78.21;102005.16;5183675;28;20023;-75
2022/07/05 05:28:26;;;;;;;11.70;8.30;;;;;;;15.36;77.64;101999.69;5180869;28;20031;-76
2022/07/05 05:30:58;;;;;;;16.43;8.87;;;;;;;15.38;77.21;102011.94;5180579;28;20062;-76
2022/07/05 05:33:29;;;;;;;15.57;9.40;;;;;;;15.38;76.40;102021.56;5180812;28;20038;-77
2022/07/05 05:36:02;;;;;;;13.20;9.13;;;;;;;15.36;76.46;102024.22;5180631;28;20097;-75
2022/07/05 05:38:33;;;;;;;12.32;9.45;;;;;;;15.27;76.47;102021.72;5180182;28;20038;-76
2022/07/05 05:41:05;;;;;;;11.57;10.03;;;;;;;15.46;75.53;102025.84;5180768;28;20457;-76
2022/07/05 05:49:11;;;;;;;13.32;9.02;;;;;;;15.50;75.38;102037.16;5350539;23;19922;-71
2022/07/05 05:51:42;;;;;;;13.47;9.27;;;;;;;15.47;74.62;102034.56;5130662;29;20031;-73
2022/07/05 05:54:13;;;;;;;11.87;8.40;;;;;;;15.66;74.71;102035.19;5181058;28;20103;-72
2022/07/05 05:56:45;;;;;;;11.90;8.67;;;;;;;15.76;74.28;102039.47;5174346;28;20099;-70
2022/07/05 05:59:16;;;;;;;11.57;7.93;;;;;;;15.85;73.54;102043.72;5160698;29;20041;-70
2022/07/05 06:01:49;;;;;;;9.50;8.13;;;;;;;15.91;73.45;102038.38;5160529;29;20106;-69
2022/07/05 06:04:20;;;;;;;9.85;7.70;;;;;;;16.06;73.22;102041.66;5160421;29;20039;-70
2022/07/05 06:06:51;;;;;;;9.00;8.07;;;;;;;16.19;72.88;102051.09;5160362;29;20023;-70
2022/07/05 06:09:23;;;;;;;13.30;8.10;;;;;;;16.20;72.24;102045.81;5160326;29;20032;-70
2022/07/05 06:11:54;;;;;;;10.47;8.27;;;;;;;16.16;72.76;102044.09;5160148;29;20027;-71
2022/07/05 06:14:27;;;;;;;9.32;8.30;;;;;;;16.27;72.14;102046.56;5160217;29;20122;-71
2022/07/05 06:16:58;;;;;;;12.13;8.67;;;;;;;16.45;71.60;102047.16;5160524;29;20046;-69
2022/07/05 06:19:29;;;;;;;9.70;7.73;;;;;;;16.47;70.72;102045.38;5142826;29;20035;-68
2022/07/05 06:22:01;;;;;;;9.53;8.53;;;;;;;16.51;71.48;102049.69;5159492;28;20047;-69
2022/07/05 06:24:32;;;;;;;16.90;12.87;;;;;;;16.55;70.07;102051.38;5160496;29;20035;-70
2022/07/05 06:27:05;;;;;;;14.17;11.80;;;;;;;16.46;70.03;102054.19;5160172;29;20039;-68
2022/07/05 06:29:36;;;;;;;16.52;14.30;;;;;;;16.53;70.22;102054.03;5160041;29;20050;-70
2022/07/05 06:32:08;;;;;;;17.87;13.53;;;;;;;16.59;69.79;102059.19;5159917;29;20051;-68
2022/07/05 06:34:40;;;;;;;14.80;10.98;;;;;;;16.77;69.02;102057.97;5160003;29;20027;-69
2022/07/05 06:37:11;;;;;;;14.33;11.83;;;;;;;16.90;69.14;102069.19;5160072;29;20086;-70
2022/07/05 06:39:43;;;;;;;12.00;10.47;;;;;;;16.96;67.67;102068.22;5160002;29;20514;-70
2022/07/05 06:42:16;;;;;;;11.65;10.35;;;;;;;16.96;68.10;102062.94;5159938;29;20383;-68
2022/07/05 06:47:28;;;;;;;12.32;9.02;;;;;;;17.19;67.66;102067.75;5391604;23;20057;-69
2022/07/05 06:50:02;;;;;;;10.07;9.00;;;;;;;17.36;68.77;102064.78;5179592;28;20035;-70
2022/07/05 06:52:34;;;;;;;11.27;8.93;;;;;;;17.26;67.64;102069.38;5148156;29;20023;-71
2022/07/05 06:55:05;;;;;;;11.87;8.47;;;;;;;17.18;67.67;102068.69;5159736;29;20031;-69
2022/07/05 06:57:37;;;;;;;13.70;8.77;;;;;;;16.99;69.06;102069.94;5142547;29;20042;-69
2022/07/05 07:00:12;;;;;;;13.70;8.77;;;;;;;16.89;69.22;102074.50;5159453;29;20110;-70
2022/07/05 07:02:44;;;;;;;10.15;8.35;;;;;;;16.81;70.14;102071.97;5159651;29;20054;-71
2022/07/05 07:05:15;;;;;;;11.33;7.77;;;;;;;16.87;70.73;102073.66;5159811;29;20109;-70
2022/07/05 07:10:37;;;;;;;12.48;7.25;;;;;;;17.29;70.13;102071.06;5159546;29;20031;-70
2022/07/05 07:13:08;;;;;;;9.40;8.27;;;;;;;17.81;68.90;102064.69;5159568;29;20023;-71
2022/07/05 07:15:40;;;;;;;8.40;6.70;;;;;;;18.12;67.15;102076.34;5159452;29;20309;-71
2022/07/05 07:18:11;;;;;;;10.80;6.80;;;;;;;18.43;66.85;102081.72;5159093;29;20027;-70
2022/07/05 07:20:44;;;;;;;9.03;6.03;;;;;;;18.62;66.68;102074.22;5157952;29;20398;-71
2022/07/05 07:23:16;;;;;;;12.32;5.85;;;;;;;18.90;66.51;102081.44;5159128;29;20482;-70
2022/07/05 07:25:48;;;;;;;12.80;7.10;;;;;;;18.97;64.51;102076.88;5159438;29;20058;-71
2022/07/05 07:28:19;;;;;;;11.17;6.63;;;;;;;18.94;64.70;102085.72;5159299;29;20062;-70
2022/07/05 07:30:50;;;;;;;11.13;6.80;;;;;;;19.06;64.91;102074.84;5158830;29;20024;-69
2022/07/05 07:33:22;;;;;;;17.13;8.23;;;;;;;19.03;64.96;102080.22;5161153;28;20094;-70
2022/07/05 07:35:53;;;;;;;12.60;7.43;;;;;;;19.01;65.98;102078.50;5163261;29;20031;-72
2022/07/05 07:38:25;;;;;;;12.23;7.77;;;;;;;19.03;66.06;102081.97;5162687;29;20075;-70
2022/07/05 07:40:57;;;;;;;13.07;8.35;;;;;;;19.25;65.79;102085.72;5163299;29;20046;-71
2022/07/05 07:43:29;;;;;;;16.03;8.37;;;;;;;18.97;65.92;102087.44;5163128;29;20035;-71
2022/07/05 07:46:00;;;;;;;10.37;6.57;;;;;;;19.18;66.52;102092.13;5162926;29;20857;-72
2022/07/05 07:48:31;;;;;;;13.63;7.03;;;;;;;19.23;66.88;102086.72;5162961;29;20062;-71
2022/07/05 07:51:03;;;;;;;11.70;6.90;;;;;;;19.54;65.65;102086.66;5163063;29;20515;-71
2022/07/05 07:53:34;;;;;;;12.57;7.00;;;;;;;19.64;65.99;102077.56;5163013;29;20490;-71
2022/07/05 07:56:05;;;;;;;14.07;7.00;;;;;;;19.78;64.50;102093.03;5162628;29;20027;-71
2022/07/05 07:58:37;;;;;;;14.20;6.97;;;;;;;19.82;63.96;102088.53;5160655;29;20054;-71
2022/07/05 08:01:10;;;;;;;16.07;6.87;;;;;;;19.75;64.09;102087.78;5162708;29;20463;-69
2022/07/05 08:03:43;;;;;;;13.98;6.57;;;;;;;20.16;64.00;102092.75;5162641;29;20103;-70
2022/07/05 08:06:15;;;;;;;10.90;6.10;;;;;;;20.38;62.75;102091.13;5162710;29;20031;-70
2022/07/05 08:08:47;;;;;;;11.65;6.43;;;;;;;20.59;62.33;102096.59;5162593;29;20107;-72
2022/07/05 08:11:18;;;;;;;13.60;7.20;;;;;;;20.31;61.86;102092.25;5162622;29;20069;-69
2022/07/05 08:13:50;;;;;;;18.40;8.00;;;;;;;20.12;62.30;102088.47;5162554;29;20423;-72
2022/07/05 08:16:21;;;;;;;15.27;7.37;;;;;;;20.01;62.46;102105.56;5162493;29;20037;-71
2022/07/05 08:21:43;;;;;;;15.63;7.68;;;;;;;20.16;62.95;102096.25;5162533;29;20043;-70
2022/07/05 08:24:14;;;;;;;19.27;8.00;;;;;;;20.27;62.75;102100.34;5162029;29;20035;-72
2022/07/05 08:26:46;;;;;;;14.35;7.93;;;;;;;20.28;63.30;102094.13;5161381;29;20039;-71
2022/07/05 08:29:17;;;;;;;17.23;8.90;;;;;;;20.13;63.07;102103.44;5161551;29;20027;-71
2022/07/05 08:31:51;;;;;;;14.13;9.27;;;;;;;20.21;62.66;102101.41;5144704;29;20387;-71
2022/07/05 08:34:24;;;;;;;21.65;8.48;;;;;;;20.33;63.08;102103.63;5161672;29;20110;-70
2022/07/05 08:36:55;;;;;;;13.80;8.52;;;;;;;20.93;62.59;102098.16;5160943;29;20035;-71
2022/07/05 08:39:28;;;;;;;14.10;8.60;;;;;;;20.93;61.14;102104.31;5161686;29;20033;-71
2022/07/05 08:42:00;;;;;;;17.73;10.50;;;;;;;21.01;61.15;102090.78;5161295;29;20134;-73
2022/07/05 08:44:38;;;;;;;14.73;7.97;;;;;;;21.17;60.11;102090.22;5161227;28;20106;-71
2022/07/05 08:47:11;;;;;;;20.20;9.68;;;;;;;21.01;59.99;102096.09;5161334;29;20054;-70
2022/07/05 08:49:43;;;;;;;16.13;9.25;;;;;;;21.02;60.73;102096.94;5161991;29;20058;-72
2022/07/05 08:52:15;;;;;;;13.38;7.25;;;;;;;20.71;59.97;102098.03;5161979;29;20026;-71
2022/07/05 08:54:46;;;;;;;12.47;7.83;;;;;;;20.45;61.17;102097.09;5161527;29;20027;-71
2022/07/05 08:57:18;;;;;;;12.73;6.77;;;;;;;20.32;60.43;102086.03;5161526;29;20035;-70
2022/07/05 08:59:49;;;;;;;13.07;7.07;;;;;;;20.81;59.88;102085.31;5161629;29;20062;-70
2022/07/05 09:02:21;;;;;;;12.47;6.90;;;;;;;20.74;59.87;102087.31;5161939;29;20066;-70
2022/07/05 09:04:55;;;;;;;12.23;6.65;;;;;;;21.07;60.90;102084.38;5161730;29;20124;-71
2022/07/05 09:07:32;;;;;;;15.05;7.22;;;;;;;21.52;58.56;102085.41;5161350;29;20031;-70
2022/07/05 09:10:05;;;;;;;16.50;8.48;;;;;;;21.69;56.93;102085.63;5161456;29;20474;-70
2022/07/05 09:12:37;;;;;;;15.77;7.32;;;;;;;21.76;55.82;102095.06;5161726;29;20082;-71
2022/07/05 09:15:09;;;;;;;;;;;;;;;22.44;56.71;102099.47;5161798;29;20050;-70
2022/07/05 09:17:46;;;;;;;13.30;4.20;;;;;;;21.87;50.63;102105.28;5161491;29;19920;-72
2022/07/05 09:20:19;;;;;;;7.85;5.00;;;;;;;21.60;52.55;102101.91;5161243;29;20489;-72
2022/07/05 09:22:53;;;;;;;10.57;4.88;;;;;;;22.06;55.85;102096.56;5160966;29;20367;-69
2022/07/05 09:25:31;;;;;;;9.63;5.95;;;;;;;21.35;54.81;102097.50;5160889;29;20039;-70
2022/07/05 09:28:04;;;;;;;12.85;5.75;;;;;;;20.81;56.04;102107.38;5161128;29;20067;-71
2022/07/05 09:30:38;;;;;;;9.10;4.63;;;;;;;21.34;55.49;102094.91;5161192;29;20435;-72
2022/07/05 09:33:14;;;;;;;9.90;4.68;;;;;;;21.28;53.98;102096.00;5143575;29;20027;-71
2022/07/05 09:35:57;;;;;;;8.93;4.22;;;;;;;21.44;50.79;102094.47;5160735;29;20034;-70
2022/07/05 09:38:29;;;;;;;7.72;3.20;;;;;;;21.80;49.38;102091.38;5160651;29;20034;-72
2022/07/05 09:41:01;;;;;;;8.25;4.40;;;;;;;22.15;48.78;102097.09;5160895;29;20031;-71
2022/07/05 09:43:32;;;;;;;;;;;;;;;22.78;48.28;102096.25;5161207;29;20087;-72
2022/07/05 09:46:05;;;;;;;15.27;5.23;;;;;;;22.80;50.41;102096.16;5160885;29;20326;-70
2022/07/05 09:48:36;;;;;;;11.95;4.22;;;;;;;23.17;47.75;102084.81;5160700;29;20043;-72
2022/07/05 09:51:12;;;;;;;9.13;4.10;;;;;;;23.34;46.46;102085.84;5160727;29;20399;-71
2022/07/05 09:53:56;;;;;;;10.23;4.63;;;;;;;23.41;46.11;102089.94;5160710;29;20620;-75
2022/07/05 09:56:29;;;;;;;6.45;3.53;;;;;;;23.32;46.34;102077.06;5160179;28;20031;-71
2022/07/05 09:59:19;;;;;;;6.78;3.50;;;;;;;23.29;44.54;102083.38;5142954;29;20035;-72
2022/07/05 10:01:51;;;;;;;12.63;3.97;;;;;;;22.91;45.02;102080.63;5160444;29;20034;-71
2022/07/05 10:04:23;;;;;;;9.75;3.80;;;;;;;22.74;45.41;102081.38;5160448;29;20031;-71
2022/07/05 10:06:55;;;;;;;7.88;3.15;;;;;;;22.37;45.77;102075.81;5160093;29;20019;-72
2022/07/05 10:09:27;;;;;;;7.53;3.47;;;;;;;22.25;46.46;102075.44;5160634;29;20027;-72
2022/07/05 10:11:58;;;;;;;9.07;3.15;;;;;;;22.25;48.44;102078.97;5160479;29;20038;-71
2022/07/05 10:14:30;;;;;;;6.13;3.00;;;;;;;22.19;46.39;102082.75;5160207;29;20035;-70
2022/07/05 10:17:04;;;;;;;9.45;3.78;;;;;;;22.22;46.15;102090.59;5159902;29;20169;-71
2022/07/05 10:19:41;;;;;;;7.50;3.20;;;;;;;22.57;47.52;102098.91;5159665;29;20023;-71
2022/07/05 10:22:13;;;;;;;6.03;3.47;;;;;;;22.72;44.40;102093.88;5159699;29;20034;-72
2022/07/05 10:24:46;;;;;;;9.40;3.72;;;;;;;22.42;44.52;102093.38;5142422;29;20031;-72
2022/07/05 10:27:18;;;;;;;5.22;3.50;;;;;;;22.84;45.07;102087.16;5158585;29;20110;-70
2022/07/05 10:29:52;;;;;;;8.25;4.10;;;;;;;23.05;46.93;102090.66;5159350;29;20035;-71
2022/07/05 10:32:25;;;;;;;9.35;4.10;;;;;;;25.00;42.68;102088.34;5159581;29;20110;-72
2022/07/05 10:34:58;;;;;;;7.22;3.92;;;;;;;26.82;38.84;102088.78;5159501;29;20031;-70
2022/07/05 10:37:32;;;;;;;8.75;4.20;;;;;;;26.27;37.31;102084.91;5159611;29;20031;-71
2022/07/05 10:40:05;;;;;;;7.07;4.07;;;;;;;25.95;38.72;102092.09;5159578;29;20030;-71
2022/07/05 10:42:43;;;;;;;5.38;2.80;;;;;;;25.11;39.49;102085.09;5159597;29;20085;-71
2022/07/05 10:45:29;;;;;;;6.50;3.05;;;;;;;24.78;42.09;102087.75;5159476;29;20038;-70
2022/07/05 10:48:10;;;;;;;8.32;2.83;;;;;;;24.12;40.87;102089.28;5159290;29;20046;-71
2022/07/05 10:50:59;;;;;;;6.53;2.63;;;;;;;25.41;38.95;102077.28;5159088;29;20067;-71
2022/07/05 10:53:36;;;;;;;6.93;2.83;;;;;;;26.62;36.38;102083.78;5159555;29;20031;-71
2022/07/05 10:56:08;;;;;;;9.82;3.25;;;;;;;27.81;32.01;102078.09;5158851;29;20035;-70
2022/07/05 10:58:46;;;;;;;5.47;2.40;;;;;;;29.39;29.74;102081.69;5158576;29;20049;-71
2022/07/05 11:01:20;;;;;;;4.68;2.65;;;;;;;27.68;31.01;102089.72;5157180;29;20146;-72
2022/07/05 11:04:00;;;;;;;7.95;3.33;;;;;;;26.38;35.20;102077.09;5158528;29;20122;-70
2022/07/05 11:06:37;;;;;;;6.78;2.45;;;;;;;25.83;36.52;102089.16;5158299;29;20027;-71
2022/07/05 11:09:11;;;;;;;7.47;2.95;;;;;;;25.03;37.19;102093.50;5158279;28;20466;-71
2022/07/05 11:11:52;;;;;;;5.82;2.70;;;;;;;24.35;36.14;102093.44;5158326;29;20423;-72
2022/07/05 11:14:25;;;;;;;5.47;2.72;;;;;;;23.49;38.56;102091.31;5158468;29;20051;-73
2022/07/05 11:17:09;;;;;;;5.70;2.35;;;;;;;22.65;40.86;102098.56;5158296;29;20142;-72
2022/07/05 11:19:59;;;;;;;5.93;2.53;;;;;;;22.67;42.26;102101.16;5158422;29;20019;-71
2022/07/05 11:22:30;;;;;;;5.75;2.35;;;;;;;22.53;42.33;102094.66;5158244;29;20050;-70
2022/07/05 11:25:04;;;;;;;5.32;2.22;;;;;;;22.65;42.38;102100.38;5158531;29;20031;-70
2022/07/05 11:27:57;;;;;;;10.63;2.72;;;;;;;22.29;42.46;102093.00;5160057;29;20419;-71
2022/07/05 11:30:28;;;;;;;10.95;2.50;;;;;;;22.77;42.97;102091.88;5159358;29;20031;-70
2022/07/05 11:33:19;;;;;;;5.80;2.53;;;;;;;23.26;42.79;102086.19;5159043;29;20471;-72
2022/07/05 11:35:51;;;;;;;5.45;2.55;;;;;;;22.08;43.73;102097.41;5159584;29;20307;-70
2022/07/05 11:38:23;;;;;;;5.82;2.33;;;;;;;22.12;44.70;102086.59;5159670;29;20024;-70
2022/07/05 11:40:54;;;;;;;8.45;3.33;;;;;;;22.98;42.47;102092.72;5159057;29;20035;-72
2022/07/05 11:43:30;;;;;;;7.97;3.10;;;;;;;23.67;42.24;102086.06;5141129;29;20097;-75
2022/07/05 11:46:02;;;;;;;4.70;2.67;;;;;;;23.39;41.19;102091.81;5158669;29;20042;-71
2022/07/05 11:48:34;;;;;;;7.97;2.00;;;;;;;24.83;39.35;102083.06;5157952;29;20097;-71
2022/07/05 11:51:15;;;;;;;6.03;2.47;;;;;;;27.05;36.42;102087.38;5158089;29;20023;-70
2022/07/05 11:53:46;;;;;;;4.90;3.10;;;;;;;29.62;30.83;102074.66;5158124;29;20470;-73
2022/07/05 11:56:18;;;;;;;7.32;3.47;;;;;;;30.86;30.11;102073.41;5157908;29;20086;-71
2022/07/05 11:58:49;;;;;;;;;;;;;;;31.79;28.13;102072.25;5158162;29;20027;-73
2022/07/05 12:01:21;;;;;;;4.00;2.43;;;;;;;30.64;29.27;102067.03;5157705;29;19914;-71
2022/07/05 12:03:55;;;;;;;;;;;;;;;33.28;28.98;102076.66;5158410;29;20027;-72
2022/07/05 12:06:27;;;;;;;4.35;2.67;;;;;;;32.70;25.61;102078.06;5157973;29;19962;-72
2022/07/05 12:09:03;;;;;;;7.85;2.92;;;;;;;33.37;25.19;102073.13;5157728;29;20020;-71